createdAt,value
2019-04-11T00:00:19.505Z,7.84
2019-04-11T00:01:56.397Z,7.88
2019-04-11T00:03:31.082Z,7.90
2019-04-11T00:05:06.418Z,7.94
2019-04-11T00:06:41.428Z,7.98
2019-04-11T00:08:15.764Z,8.03
2019-04-11T00:09:51.212Z,8.07
2019-04-11T00:11:26.001Z,8.12
2019-04-11T00:13:01.275Z,8.18
2019-04-11T00:14:36.628Z,8.23
2019-04-11T00:16:11.106Z,8.28
2019-04-11T00:17:45.982Z,8.30
2019-04-11T00:19:21.147Z,8.32
2019-04-11T00:20:56.175Z,8.27
2019-04-11T00:22:31.328Z,8.22
2019-04-11T00:24:06.743Z,8.22
2019-04-11T00:25:42.041Z,8.27
2019-04-11T00:27:17.081Z,8.32
2019-04-11T00:28:52.097Z,8.28
2019-04-11T00:30:28.209Z,8.28
2019-04-11T00:32:05.868Z,8.23
2019-04-11T00:33:38.581Z,8.17
2019-04-11T00:35:12.665Z,8.14
2019-04-11T00:36:46.424Z,8.08
2019-04-11T00:38:21.443Z,8.00
2019-04-11T00:39:56.295Z,7.98
2019-04-11T00:41:31.251Z,7.99
2019-04-11T00:43:07.353Z,7.96
2019-04-11T00:44:41.226Z,7.90
2019-04-11T00:46:14.877Z,7.86
2019-04-11T00:47:49.521Z,7.87
2019-04-11T00:49:24.198Z,7.91
2019-04-11T00:50:57.882Z,7.93
2019-04-11T00:52:32.155Z,7.96
2019-04-11T00:54:06.689Z,7.93
2019-04-11T00:55:40.510Z,7.94
2019-04-11T00:57:14.900Z,7.95
2019-04-11T00:58:49.859Z,7.98
2019-04-11T01:00:23.913Z,7.99
2019-04-11T01:01:58.834Z,8.05
2019-04-11T01:03:32.578Z,8.07
2019-04-11T01:05:07.557Z,8.02
2019-04-11T01:06:42.557Z,7.93
2019-04-11T01:08:16.322Z,7.88
2019-04-11T01:09:50.701Z,7.83
2019-04-11T01:11:24.945Z,7.81
2019-04-11T01:12:59.441Z,7.77
2019-04-11T01:14:34.044Z,7.81
2019-04-11T01:16:20.182Z,7.81
2019-04-11T01:17:54.051Z,7.80
2019-04-11T01:19:28.969Z,7.80
2019-04-11T01:21:04.057Z,7.79
2019-04-11T01:22:38.548Z,7.76
2019-04-11T01:24:12.535Z,7.74
2019-04-11T01:25:48.501Z,7.75
2019-04-11T01:27:23.626Z,7.76
2019-04-11T01:28:58.690Z,7.73
2019-04-11T01:30:38.796Z,7.73
2019-04-11T01:32:13.893Z,7.74
2019-04-11T01:33:48.381Z,7.74
2019-04-11T01:35:23.529Z,7.79
2019-04-11T01:36:58.166Z,7.82
2019-04-11T01:38:34.653Z,7.86
2019-04-11T01:40:09.848Z,7.87
2019-04-11T01:41:44.772Z,7.89
2019-04-11T01:43:19.863Z,7.90
2019-04-11T01:44:54.838Z,7.89
2019-04-11T01:46:29.809Z,7.91
2019-04-11T01:48:17.412Z,7.56
2019-04-11T01:49:52.490Z,7.93
2019-04-11T01:51:27.969Z,7.91
2019-04-11T01:53:02.625Z,7.91
2019-04-11T01:54:37.608Z,7.90
2019-04-11T01:56:14.782Z,7.85
2019-04-11T01:57:49.901Z,7.84
2019-04-11T01:59:24.278Z,7.88
2019-04-11T02:01:00.712Z,7.87
2019-04-11T02:02:42.368Z,7.87
2019-04-11T02:04:19.473Z,7.88
2019-04-11T02:05:53.834Z,7.89
2019-04-11T02:07:28.892Z,7.90
2019-04-11T02:09:05.973Z,7.90
2019-04-11T02:10:41.234Z,7.92
2019-04-11T02:12:16.161Z,7.87
2019-04-11T02:13:50.360Z,7.83
2019-04-11T02:15:26.483Z,7.83
2019-04-11T02:17:02.395Z,7.82
2019-04-11T02:18:37.287Z,7.83
2019-04-11T02:20:12.540Z,7.82
2019-04-11T02:21:47.927Z,7.80
2019-04-11T02:23:23.988Z,7.75
2019-04-11T02:25:00.503Z,7.75
2019-04-11T02:26:37.611Z,7.72
2019-04-11T02:28:14.726Z,7.73
2019-04-11T02:29:50.840Z,7.74
2019-04-11T02:31:26.314Z,7.76
2019-04-11T02:33:00.818Z,7.78
2019-04-11T02:34:35.247Z,7.79
2019-04-11T02:36:11.844Z,7.79
2019-04-11T02:37:47.603Z,7.79
2019-04-11T02:39:22.925Z,7.69
2019-04-11T02:40:57.873Z,7.65
2019-04-11T02:42:32.984Z,7.66
2019-04-11T02:44:28.634Z,7.65
2019-04-11T02:45:56.973Z,7.67
2019-04-11T02:47:24.231Z,7.66
2019-04-11T02:48:59.382Z,7.69
2019-04-11T02:50:34.522Z,7.68
2019-04-11T02:52:11.163Z,7.68
2019-04-11T02:53:47.132Z,7.66
2019-04-11T02:55:22.222Z,7.63
2019-04-11T02:56:57.736Z,7.63
2019-04-11T02:58:34.450Z,7.63
2019-04-11T03:00:10.571Z,7.62
2019-04-11T03:01:46.441Z,7.60
2019-04-11T03:03:23.265Z,7.62
2019-04-11T03:04:57.694Z,7.62
2019-04-11T03:06:33.250Z,7.62
2019-04-11T03:08:11.418Z,7.62
2019-04-11T03:09:44.036Z,7.60
2019-04-11T03:11:21.393Z,7.60
2019-04-11T03:12:56.837Z,7.60
2019-04-11T03:14:46.087Z,7.59
2019-04-11T03:16:21.771Z,7.57
2019-04-11T03:17:44.623Z,7.55
2019-04-11T03:19:35.782Z,7.55
2019-04-11T03:20:57.629Z,7.55
2019-04-11T03:22:30.051Z,7.53
2019-04-11T03:24:06.136Z,7.48
2019-04-11T03:25:40.616Z,7.44
2019-04-11T03:27:15.518Z,7.41
2019-04-11T03:28:54.016Z,7.38
2019-04-11T03:30:44.695Z,7.35
2019-04-11T03:32:40.080Z,7.35
2019-04-11T03:34:31.413Z,7.34
2019-04-11T03:37:19.336Z,7.33
2019-04-11T03:38:48.236Z,7.32
2019-04-11T03:40:22.430Z,7.31
2019-04-11T03:41:52.362Z,7.26
2019-04-11T03:43:24.153Z,7.25
2019-04-11T03:44:54.815Z,7.26
2019-04-11T03:46:40.144Z,7.29
2019-04-11T03:48:10.842Z,7.34
2019-04-11T03:49:43.438Z,7.38
2019-04-11T03:51:08.833Z,7.45
2019-04-11T03:52:45.030Z,7.47
2019-04-11T03:54:18.996Z,7.51
2019-04-11T03:55:53.857Z,7.50
2019-04-11T03:57:27.787Z,7.47
2019-04-11T03:59:04.072Z,7.45
2019-04-11T04:00:42.510Z,7.46
2019-04-11T04:02:16.829Z,7.48
2019-04-11T04:03:53.937Z,7.50
2019-04-11T04:05:32.222Z,7.48
2019-04-11T04:07:04.938Z,7.47
2019-04-11T04:08:40.399Z,7.44
2019-04-11T04:10:15.748Z,7.45
2019-04-11T04:11:54.444Z,7.47
2019-04-11T04:13:31.799Z,7.48
2019-04-11T04:15:29.616Z,7.48
2019-04-11T04:17:06.977Z,7.48
2019-04-11T04:18:43.787Z,7.54
2019-04-11T04:20:21.486Z,7.57
2019-04-11T04:22:16.074Z,7.61
2019-04-11T04:23:51.867Z,7.61
2019-04-11T04:25:28.410Z,7.67
2019-04-11T04:27:04.639Z,7.74
2019-04-11T04:28:40.773Z,7.81
2019-04-11T04:30:15.907Z,7.86
2019-04-11T04:31:51.055Z,7.96
2019-04-11T04:33:28.774Z,8.06
2019-04-11T04:35:02.760Z,8.09
2019-04-11T04:36:37.915Z,8.07
2019-04-11T04:38:13.500Z,8.07
2019-04-11T04:39:51.861Z,8.05
2019-04-11T04:41:37.382Z,8.06
2019-04-11T04:43:07.087Z,8.16
2019-04-11T04:44:40.435Z,8.28
2019-04-11T04:46:29.856Z,8.35
2019-04-11T04:47:56.866Z,8.37
2019-04-11T04:49:27.905Z,8.41
2019-04-11T04:51:06.249Z,8.44
2019-04-11T04:52:38.189Z,8.43
2019-04-11T04:54:14.193Z,8.45
2019-04-11T04:55:50.201Z,8.50
2019-04-11T04:57:24.706Z,8.55
2019-04-11T04:59:02.585Z,8.57
2019-04-11T05:00:37.689Z,8.63
2019-04-11T05:02:12.947Z,8.67
2019-04-11T05:03:48.636Z,8.68
2019-04-11T05:05:24.382Z,8.71
2019-04-11T05:06:59.162Z,8.74
2019-04-11T05:08:34.713Z,8.75
2019-04-11T05:10:11.108Z,8.72
2019-04-11T05:11:46.662Z,8.73
2019-04-11T05:13:21.663Z,8.74
2019-04-11T05:14:56.681Z,8.77
2019-04-11T05:16:30.924Z,8.82
2019-04-11T05:18:06.098Z,8.78
2019-04-11T05:19:41.147Z,8.79
2019-04-11T05:21:15.426Z,8.83
2019-04-11T05:22:49.715Z,8.86
2019-04-11T05:24:24.012Z,8.92
2019-04-11T05:25:57.865Z,8.98
2019-04-11T05:27:32.175Z,9.00
2019-04-11T05:29:06.494Z,9.02
2019-04-11T05:30:40.199Z,9.04
2019-04-11T05:32:15.430Z,9.07
2019-04-11T05:33:49.764Z,9.11
2019-04-11T05:35:24.920Z,9.14
2019-04-11T05:36:59.420Z,9.16
2019-04-11T05:38:33.882Z,9.18
2019-04-11T05:40:09.282Z,9.18
2019-04-11T05:41:46.642Z,9.15
2019-04-11T05:43:19.915Z,9.15
2019-04-11T05:44:54.780Z,9.21
2019-04-11T05:46:35.539Z,9.29
2019-04-11T05:48:06.388Z,9.41
2019-04-11T05:49:52.640Z,9.48
2019-04-11T05:51:36.949Z,9.54
2019-04-11T05:53:03.889Z,9.60
2019-04-11T05:54:46.440Z,9.64
2019-04-11T05:56:20.308Z,9.68
2019-04-11T05:57:55.915Z,9.69
2019-04-11T05:59:30.723Z,9.71
2019-04-11T06:01:27.325Z,9.75
2019-04-11T06:03:03.807Z,9.76
2019-04-11T06:04:40.571Z,9.77
2019-04-11T06:06:36.086Z,9.73
2019-04-11T06:08:09.863Z,9.71
2019-04-11T06:09:46.263Z,9.69
2019-04-11T06:11:24.043Z,9.58
2019-04-11T06:13:05.353Z,9.14
2019-04-11T06:14:43.648Z,9.50
2019-04-11T06:16:18.791Z,9.43
2019-04-11T06:17:54.291Z,9.43
2019-04-11T06:19:30.595Z,9.46
2019-04-11T06:21:22.594Z,9.47
2019-04-11T06:22:58.446Z,9.49
2019-04-11T06:24:50.171Z,9.50
2019-04-11T06:26:32.387Z,9.49
2019-04-11T06:28:09.502Z,9.50
2019-04-11T06:29:52.882Z,9.50
2019-04-11T06:31:45.486Z,9.46
2019-04-11T06:33:22.598Z,9.43
2019-04-11T06:35:03.992Z,9.45
2019-04-11T06:36:41.207Z,9.48
2019-04-11T06:38:26.809Z,9.53
2019-04-11T06:40:04.099Z,9.58
2019-04-11T06:41:43.095Z,9.58
2019-04-11T06:43:25.691Z,9.59
2019-04-11T06:45:02.237Z,9.61
2019-04-11T06:46:49.549Z,9.65
2019-04-11T06:48:35.965Z,9.57
2019-04-11T06:50:28.314Z,9.61
2019-04-11T06:52:04.567Z,9.66
2019-04-11T06:53:40.437Z,9.74
2019-04-11T06:55:32.966Z,9.80
2019-04-11T06:57:09.379Z,9.85
2019-04-11T06:58:51.024Z,9.94
2019-04-11T07:00:23.739Z,9.99
2019-04-11T07:02:08.817Z,10.05
2019-04-11T07:03:53.180Z,10.07
2019-04-11T07:05:29.291Z,10.12
2019-04-11T07:07:06.487Z,10.16
2019-04-11T07:08:49.043Z,10.13
2019-04-11T07:10:40.062Z,10.11
2019-04-11T07:12:15.871Z,10.07
2019-04-11T07:13:51.167Z,10.08
2019-04-11T07:15:27.225Z,10.08
2019-04-11T07:17:18.962Z,10.06
2019-04-11T07:19:00.611Z,10.10
2019-04-11T07:20:45.736Z,10.12
2019-04-11T07:22:39.521Z,10.13
2019-04-11T07:24:24.686Z,10.15
2019-04-11T07:26:00.779Z,10.17
2019-04-11T07:27:36.568Z,10.19
2019-04-11T07:29:29.256Z,10.19
2019-04-11T07:31:21.649Z,10.24
2019-04-11T07:32:57.968Z,10.26
2019-04-11T07:34:40.222Z,10.31
2019-04-11T07:36:33.805Z,10.31
2019-04-11T07:38:10.071Z,10.28
2019-04-11T07:40:02.971Z,10.24
2019-04-11T07:41:39.976Z,10.22
2019-04-11T07:43:16.920Z,10.23
2019-04-11T07:44:55.403Z,10.18
2019-04-11T07:46:31.139Z,10.13
2019-04-11T07:48:07.195Z,10.09
2019-04-11T07:49:50.215Z,10.06
2019-04-11T07:51:25.418Z,9.99
2019-04-11T07:53:03.061Z,10.02
2019-04-11T07:54:38.884Z,10.05
2019-04-11T07:56:15.086Z,10.05
2019-04-11T07:58:08.443Z,10.01
2019-04-11T08:00:00.149Z,10.04
2019-04-11T08:01:36.100Z,10.06
2019-04-11T08:03:27.720Z,10.04
2019-04-11T08:05:11.047Z,10.00
2019-04-11T08:06:59.041Z,9.90
2019-04-11T08:08:44.637Z,9.84
2019-04-11T08:10:23.214Z,9.82
2019-04-11T08:12:00.275Z,9.86
2019-04-11T08:13:36.818Z,9.94
2019-04-11T08:15:30.002Z,9.96
2019-04-11T08:17:28.103Z,9.94
2019-04-11T08:18:57.856Z,9.94
2019-04-11T08:20:53.216Z,10.01
2019-04-11T08:22:39.240Z,10.03
2019-04-11T08:24:16.345Z,10.08
2019-04-11T08:26:06.027Z,10.12
2019-04-11T08:27:51.884Z,10.13
2019-04-11T08:29:20.042Z,10.11
2019-04-11T08:30:59.306Z,10.14
2019-04-11T08:32:38.200Z,10.16
2019-04-11T08:34:13.263Z,10.11
2019-04-11T08:36:05.181Z,10.11
2019-04-11T08:37:41.416Z,10.12
2019-04-11T08:39:17.620Z,10.16
2019-04-11T08:41:09.379Z,10.21
2019-04-11T08:42:46.505Z,10.25
2019-04-11T08:44:20.897Z,10.29
2019-04-11T08:45:56.277Z,10.35
2019-04-11T08:47:42.011Z,10.39
2019-04-11T08:49:29.000Z,10.43
2019-04-11T08:51:05.084Z,10.46
2019-04-11T08:52:42.279Z,10.48
2019-04-11T08:54:27.400Z,10.50
2019-04-11T08:56:03.908Z,10.52
2019-04-11T08:57:44.512Z,10.54
2019-04-11T08:59:21.583Z,10.58
2019-04-11T09:01:00.148Z,10.65
2019-04-11T09:02:35.370Z,10.68
2019-04-11T09:04:28.039Z,10.74
2019-04-11T09:06:04.357Z,10.76
2019-04-11T09:07:41.421Z,10.82
2019-04-11T09:09:33.581Z,10.85
2019-04-11T09:11:12.833Z,10.85
2019-04-11T09:12:48.934Z,10.80
2019-04-11T09:14:41.285Z,10.75
2019-04-11T09:16:34.022Z,10.73
2019-04-11T09:18:11.861Z,10.76
2019-04-11T09:19:55.103Z,10.73
2019-04-11T09:21:43.056Z,10.70
2019-04-11T09:23:17.658Z,10.64
2019-04-11T09:25:08.971Z,10.63
2019-04-11T09:27:02.360Z,10.62
2019-04-11T09:28:39.611Z,10.63
2019-04-11T09:30:19.240Z,10.61
2019-04-11T09:32:04.399Z,10.62
2019-04-11T09:33:44.927Z,10.63
2019-04-11T09:35:24.096Z,10.66
2019-04-11T09:37:00.977Z,10.71
2019-04-11T09:38:38.157Z,10.77
2019-04-11T09:40:34.023Z,10.84
2019-04-11T09:42:11.565Z,10.93
2019-04-11T09:43:46.369Z,11.03
2019-04-11T09:45:30.844Z,11.08
2019-04-11T09:47:24.195Z,11.16
2019-04-11T09:49:16.823Z,11.21
2019-04-11T09:50:56.462Z,11.24
2019-04-11T09:52:33.215Z,11.30
2019-04-11T09:54:26.200Z,11.36
2019-04-11T09:56:02.611Z,11.41
2019-04-11T09:57:38.546Z,11.44
2019-04-11T09:59:14.456Z,11.46
2019-04-11T10:01:06.636Z,11.47
2019-04-11T10:03:00.845Z,11.36
2019-04-11T10:04:37.243Z,11.48
2019-04-11T10:06:14.072Z,11.46
2019-04-11T10:07:55.381Z,11.42
2019-04-11T10:09:32.316Z,11.35
2019-04-11T10:11:26.030Z,11.30
2019-04-11T10:13:18.622Z,11.27
2019-04-11T10:14:53.707Z,11.30
2019-04-11T10:16:29.923Z,11.33
2019-04-11T10:18:27.164Z,11.38
2019-04-11T10:19:57.115Z,11.36
2019-04-11T10:21:39.536Z,11.36
2019-04-11T10:23:30.736Z,11.35
2019-04-11T10:25:10.686Z,11.34
2019-04-11T10:26:53.109Z,11.39
2019-04-11T10:28:45.960Z,11.41
2019-04-11T10:30:39.808Z,11.44
2019-04-11T10:32:17.001Z,11.46
2019-04-11T10:33:53.193Z,11.48
2019-04-11T10:35:46.170Z,11.45
2019-04-11T10:37:21.955Z,11.39
2019-04-11T10:39:15.285Z,11.45
2019-04-11T10:41:00.896Z,11.53
2019-04-11T10:42:39.012Z,11.52
2019-04-11T10:44:15.899Z,11.66
2019-04-11T10:45:58.794Z,11.67
2019-04-11T10:47:35.236Z,11.65
2019-04-11T10:49:17.798Z,11.62
2019-04-11T10:51:00.352Z,11.61
2019-04-11T10:52:36.355Z,11.65
2019-04-11T10:54:12.038Z,11.68
2019-04-11T10:55:51.737Z,11.70
2019-04-11T10:57:30.386Z,11.74
2019-04-11T10:59:05.117Z,11.76
2019-04-11T11:00:57.972Z,11.79
2019-04-11T11:02:33.848Z,11.81
2019-04-11T11:04:09.694Z,11.83
2019-04-11T11:05:55.511Z,11.86
2019-04-11T11:07:32.820Z,11.87
2019-04-11T11:09:10.096Z,11.85
2019-04-11T11:10:44.400Z,11.89
2019-04-11T11:12:29.614Z,11.93
2019-04-11T11:14:06.689Z,11.98
2019-04-11T11:15:43.941Z,12.00
2019-04-11T11:17:43.170Z,12.02
2019-04-11T11:19:37.522Z,12.02
2019-04-11T11:20:56.441Z,11.98
2019-04-11T11:22:33.162Z,11.96
2019-04-11T11:24:23.958Z,11.96
2019-04-11T11:26:06.899Z,11.99
2019-04-11T11:27:43.711Z,11.96
2019-04-11T11:29:20.530Z,11.95
2019-04-11T11:31:14.082Z,11.94
2019-04-11T11:32:49.587Z,11.91
2019-04-11T11:34:32.604Z,11.92
2019-04-11T11:36:17.751Z,11.92
2019-04-11T11:37:53.444Z,11.92
2019-04-11T11:39:33.456Z,11.94
2019-04-11T11:41:16.341Z,11.98
2019-04-11T11:43:10.588Z,12.01
2019-04-11T11:44:49.544Z,12.07
2019-04-11T11:46:44.542Z,12.11
2019-04-11T11:48:24.801Z,12.09
2019-04-11T11:50:04.098Z,12.06
2019-04-11T11:51:58.010Z,12.06
2019-04-11T11:53:47.660Z,12.07
2019-04-11T11:55:29.511Z,12.12
2019-04-11T11:57:06.538Z,12.19
2019-04-11T11:58:51.844Z,12.25
2019-04-11T12:00:25.514Z,12.30
2019-04-11T12:02:04.388Z,12.33
2019-04-11T12:03:50.786Z,12.35
2019-04-11T12:05:30.934Z,12.37
2019-04-11T12:07:08.573Z,12.39
2019-04-11T12:08:56.171Z,12.36
2019-04-11T12:10:33.992Z,12.25
2019-04-11T12:12:13.556Z,12.17
2019-04-11T12:13:49.141Z,12.10
2019-04-11T12:15:28.826Z,12.06
2019-04-11T12:17:06.709Z,12.01
2019-04-11T12:18:49.781Z,12.01
2019-04-11T12:20:25.578Z,12.05
2019-04-11T12:22:02.173Z,12.09
2019-04-11T12:24:03.447Z,12.11
2019-04-11T12:25:34.702Z,12.15
2019-04-11T12:27:20.565Z,12.16
2019-04-11T12:28:57.511Z,12.17
2019-04-11T12:30:37.394Z,12.18
2019-04-11T12:32:14.818Z,12.20
2019-04-11T12:34:06.590Z,12.22
2019-04-11T12:35:52.689Z,12.20
2019-04-11T12:37:31.753Z,12.19
2019-04-11T12:39:24.281Z,12.20
2019-04-11T12:41:08.293Z,12.19
2019-04-11T12:42:43.603Z,12.20
2019-04-11T12:44:31.984Z,12.20
2019-04-11T12:46:29.793Z,12.22
2019-04-11T12:48:00.288Z,12.22
2019-04-11T12:49:39.160Z,12.22
2019-04-11T12:51:31.824Z,12.20
2019-04-11T12:53:08.866Z,12.24
2019-04-11T12:54:53.984Z,12.27
2019-04-11T12:56:42.190Z,12.30
2019-04-11T12:58:26.919Z,12.36
2019-04-11T13:00:05.841Z,12.43
2019-04-11T13:01:54.236Z,12.47
2019-04-11T13:03:46.384Z,12.45
2019-04-11T13:05:22.207Z,12.42
2019-04-11T13:07:04.105Z,12.38
2019-04-11T13:08:55.730Z,12.35
2019-04-11T13:10:30.332Z,12.34
2019-04-11T13:12:09.371Z,12.34
2019-04-11T13:13:48.240Z,12.36
2019-04-11T13:15:30.140Z,12.38
2019-04-11T13:17:08.755Z,12.38
2019-04-11T13:19:03.145Z,12.33
2019-04-11T13:20:48.742Z,12.33
2019-04-11T13:22:26.134Z,12.31
2019-04-11T13:24:18.931Z,12.34
2019-04-11T13:26:06.571Z,12.37
2019-04-11T13:27:42.508Z,12.37
2019-04-11T13:29:21.625Z,12.40
2019-04-11T13:31:13.584Z,12.41
2019-04-11T13:32:49.510Z,12.48
2019-04-11T13:34:25.659Z,12.55
2019-04-11T13:36:05.475Z,12.61
2019-04-11T13:37:57.809Z,12.65
2019-04-11T13:39:32.864Z,12.65
2019-04-11T13:41:24.287Z,12.66
2019-04-11T13:43:06.080Z,12.70
2019-04-11T13:44:42.426Z,12.71
2019-04-11T13:46:24.516Z,12.73
2019-04-11T13:48:06.574Z,12.75
2019-04-11T13:49:42.447Z,12.79
2019-04-11T13:51:18.609Z,12.80
2019-04-11T13:53:11.025Z,12.48
2019-04-11T13:54:46.911Z,12.87
2019-04-11T13:56:22.922Z,12.89
2019-04-11T13:58:14.967Z,12.92
2019-04-11T13:59:55.751Z,12.91
2019-04-11T14:01:30.833Z,12.70
2019-04-11T14:03:15.713Z,12.88
2019-04-11T14:04:57.118Z,12.89
2019-04-11T14:06:31.414Z,12.88
2019-04-11T14:08:05.786Z,12.88
2019-04-11T14:09:42.212Z,12.88
2019-04-11T14:11:19.521Z,12.88
2019-04-11T14:13:01.089Z,12.87
2019-04-11T14:14:35.716Z,12.87
2019-04-11T14:16:14.969Z,12.88
2019-04-11T14:18:07.111Z,12.88
2019-04-11T14:19:45.915Z,12.89
2019-04-11T14:21:21.802Z,12.90
2019-04-11T14:23:00.296Z,12.91
2019-04-11T14:24:48.433Z,12.93
2019-04-11T14:26:42.130Z,12.93
2019-04-11T14:28:18.063Z,12.94
2019-04-11T14:29:54.055Z,12.97
2019-04-11T14:31:46.448Z,13.00
2019-04-11T14:33:23.590Z,13.04
2019-04-11T14:35:15.154Z,13.01
2019-04-11T14:37:07.212Z,13.16
2019-04-11T14:38:47.589Z,13.26
2019-04-11T14:40:36.983Z,13.37
2019-04-11T14:42:31.243Z,13.43
2019-04-11T14:44:06.631Z,13.48
2019-04-11T14:45:45.499Z,13.56
2019-04-11T14:47:38.985Z,13.58
2019-04-11T14:49:12.947Z,13.59
2019-04-11T14:50:51.673Z,13.59
2019-04-11T14:52:36.610Z,13.56
2019-04-11T14:54:24.408Z,13.50
2019-04-11T14:56:03.383Z,13.52
2019-04-11T14:57:48.407Z,13.56
2019-04-11T14:59:24.981Z,13.55
2019-04-11T15:00:59.513Z,13.57
2019-04-11T15:02:50.827Z,13.57
2019-04-11T15:04:32.643Z,13.53
2019-04-11T15:06:08.507Z,13.52
2019-04-11T15:07:43.687Z,13.48
2019-04-11T15:09:23.225Z,13.45
2019-04-11T15:11:04.835Z,13.44
2019-04-11T15:12:40.196Z,13.43
2019-04-11T15:14:32.780Z,13.45
2019-04-11T15:16:14.417Z,13.45
2019-04-11T15:17:49.593Z,13.44
2019-04-11T15:19:24.783Z,13.41
2019-04-11T15:21:18.650Z,13.40
2019-04-11T15:22:54.616Z,13.36
2019-04-11T15:24:29.013Z,13.32
2019-04-11T15:26:21.317Z,13.31
2019-04-11T15:27:59.952Z,13.28
2019-04-11T15:29:34.333Z,13.23
2019-04-11T15:31:18.479Z,13.23
2019-04-11T15:33:05.363Z,13.19
2019-04-11T15:34:41.334Z,13.15
2019-04-11T15:36:25.574Z,13.12
2019-04-11T15:40:07.775Z,13.07
2019-04-11T15:41:46.128Z,13.04
2019-04-11T15:43:42.171Z,12.99
2019-04-11T15:45:34.431Z,12.95
2019-04-11T15:47:19.671Z,12.92
2019-04-11T15:49:20.078Z,12.89
2019-04-11T15:50:51.510Z,12.89
2019-04-11T15:52:25.753Z,12.87
2019-04-11T15:54:01.618Z,12.89
2019-04-11T15:55:43.581Z,12.89
2019-04-11T15:57:26.899Z,12.90
2019-04-11T15:59:12.868Z,12.90
2019-04-11T16:00:55.589Z,12.92
2019-04-11T16:02:34.438Z,12.91
2019-04-11T16:04:19.387Z,12.90
2019-04-11T16:06:05.028Z,12.88
2019-04-11T16:07:57.620Z,12.84
2019-04-11T16:09:31.963Z,12.82
2019-04-11T16:11:12.165Z,12.83
2019-04-11T16:13:01.857Z,12.84
2019-04-11T16:14:36.148Z,12.85
2019-04-11T16:38:43.077Z,12.76
2019-04-11T16:40:24.918Z,12.72
2019-04-11T16:42:04.906Z,12.71
2019-04-11T16:43:40.831Z,12.68
2019-04-11T16:45:16.864Z,12.68
2019-04-11T16:47:08.962Z,12.67
2019-04-11T16:48:43.292Z,12.66
2019-04-11T16:50:17.579Z,12.65
2019-04-11T16:51:52.182Z,12.66
2019-04-11T16:53:29.520Z,12.66
2019-04-11T16:55:04.619Z,12.65
2019-04-11T16:56:38.923Z,12.66
2019-04-11T16:58:17.017Z,12.66
2019-04-11T16:59:52.084Z,12.65
2019-04-11T17:01:26.366Z,12.64
2019-04-11T17:03:00.599Z,12.62
2019-04-11T17:04:34.946Z,12.62
2019-04-11T17:06:19.360Z,12.62
2019-04-11T17:07:58.072Z,12.62
2019-04-11T17:09:33.951Z,12.62
2019-04-11T17:11:10.549Z,12.64
2019-04-11T17:12:44.916Z,12.64
2019-04-11T17:14:27.916Z,12.63
2019-04-11T17:15:59.838Z,12.63
2019-04-11T17:17:33.232Z,12.63
2019-04-11T17:19:12.449Z,12.64
2019-04-11T17:20:48.024Z,12.62
2019-04-11T17:22:22.320Z,12.61
2019-04-11T17:23:58.237Z,12.61
2019-04-11T17:25:32.491Z,12.61
2019-04-11T17:27:06.747Z,12.60
2019-04-11T17:28:43.349Z,12.61
2019-04-11T17:30:17.321Z,12.60
2019-04-11T17:31:51.563Z,12.61
2019-04-11T17:33:28.634Z,12.59
2019-04-11T17:35:03.328Z,12.59
2019-04-11T17:36:37.849Z,12.57
2019-04-11T17:38:12.162Z,12.57
2019-04-11T17:39:47.343Z,12.56
2019-04-11T17:41:22.734Z,12.56
2019-04-11T17:42:57.352Z,12.53
2019-04-11T17:44:32.576Z,12.54
2019-04-11T17:46:06.884Z,12.54
2019-04-11T17:47:41.151Z,12.55
2019-04-11T17:49:16.116Z,12.53
2019-04-11T17:50:50.424Z,12.53
2019-04-11T17:52:26.098Z,12.53
2019-04-11T17:54:01.515Z,12.51
2019-04-11T17:55:37.608Z,12.49
2019-04-11T17:57:11.871Z,12.48
2019-04-11T17:58:46.394Z,12.47
2019-04-11T18:00:22.423Z,12.47
2019-04-11T18:01:59.646Z,12.48
2019-04-11T18:03:35.420Z,12.46
2019-04-11T18:05:09.740Z,12.44
2019-04-11T18:06:46.913Z,12.44
2019-04-11T18:08:21.075Z,12.45
2019-04-11T18:09:55.987Z,12.47
2019-04-11T18:11:31.008Z,12.45
2019-04-11T18:13:05.292Z,12.46
2019-04-11T18:14:40.765Z,12.46
2019-04-11T18:16:15.078Z,12.47
2019-04-11T18:17:49.329Z,12.47
2019-04-11T18:19:23.672Z,12.47
2019-04-11T18:20:58.308Z,12.47
2019-04-11T18:22:34.001Z,12.46
2019-04-11T18:24:08.407Z,12.46
2019-04-11T18:25:42.740Z,12.44
2019-04-11T18:27:17.188Z,12.43
2019-04-11T18:28:52.022Z,12.42
2019-04-11T18:30:27.055Z,12.42
2019-04-11T18:32:01.412Z,12.41
2019-04-11T18:33:35.841Z,12.41
2019-04-11T18:35:10.154Z,12.40
2019-04-11T18:36:45.876Z,12.40
2019-04-11T18:38:20.224Z,12.40
2019-04-11T18:39:54.747Z,12.40
2019-04-11T18:41:28.967Z,12.40
2019-04-11T18:43:03.242Z,12.39
2019-04-11T18:44:38.199Z,12.37
2019-04-11T18:46:12.548Z,12.37
2019-04-11T18:47:46.855Z,12.36
2019-04-11T18:49:21.727Z,12.37
2019-04-11T18:50:56.943Z,12.36
2019-04-11T18:52:31.487Z,12.37
2019-04-11T18:54:07.689Z,12.37
2019-04-11T18:55:41.550Z,12.36
2019-04-11T18:57:15.890Z,12.36
2019-04-11T18:58:50.688Z,12.36
2019-04-11T19:00:25.476Z,12.36
2019-04-11T19:02:01.349Z,12.37
2019-04-11T19:03:36.606Z,12.37
2019-04-11T19:05:13.332Z,12.38
2019-04-11T19:06:47.979Z,12.39
2019-04-11T19:08:22.244Z,12.40
2019-04-11T19:09:56.512Z,12.40
2019-04-11T19:11:31.111Z,12.33
2019-04-11T19:13:05.494Z,12.41
2019-04-11T19:14:39.708Z,12.41
2019-04-11T19:16:16.122Z,12.43
2019-04-11T19:17:49.976Z,12.42
2019-04-11T19:19:24.323Z,12.42
2019-04-11T19:20:58.717Z,12.43
2019-04-11T19:22:37.597Z,12.42
2019-04-11T19:24:12.966Z,12.41
2019-04-11T19:25:47.215Z,12.41
2019-04-11T19:27:21.469Z,12.39
2019-04-11T19:28:55.830Z,12.36
2019-04-11T19:30:30.302Z,12.36
2019-04-11T19:32:04.641Z,12.35
2019-04-11T19:33:40.080Z,12.32
2019-04-11T19:35:14.515Z,12.30
2019-04-11T19:36:50.199Z,12.30
2019-04-11T19:38:26.069Z,12.29
2019-04-11T19:40:00.496Z,12.29
2019-04-11T19:41:34.768Z,12.28
2019-04-11T19:43:09.408Z,12.27
2019-04-11T19:44:49.342Z,12.27
2019-04-11T19:46:21.106Z,12.27
2019-04-11T19:47:55.396Z,12.28
2019-04-11T19:49:29.745Z,12.27
2019-04-11T19:51:03.980Z,12.28
2019-04-11T19:52:45.134Z,12.29
2019-04-11T19:54:14.295Z,12.29
2019-04-11T19:55:52.330Z,12.29
2019-04-11T19:57:26.398Z,12.29
2019-04-11T19:59:00.699Z,12.28
2019-04-11T20:00:35.447Z,12.26
2019-04-11T20:02:09.964Z,12.25
2019-04-11T20:03:46.063Z,12.25
2019-04-11T20:05:20.469Z,12.25
2019-04-11T20:06:54.744Z,12.24
2019-04-11T20:08:29.243Z,12.23
2019-04-11T20:10:06.900Z,12.23
2019-04-11T20:11:41.146Z,12.22
2019-04-11T20:13:15.498Z,12.21
2019-04-11T20:14:49.982Z,12.20
2019-04-11T20:16:24.227Z,12.18
2019-04-11T20:17:58.545Z,12.18
2019-04-11T20:19:32.831Z,12.18
2019-04-11T20:21:08.284Z,12.17
2019-04-11T20:22:44.019Z,12.16
2019-04-11T20:24:19.281Z,12.16
2019-04-11T20:25:58.906Z,12.16
2019-04-11T20:27:33.471Z,12.15
2019-04-11T20:29:07.718Z,12.15
2019-04-11T20:30:42.030Z,12.13
2019-04-11T20:32:16.316Z,12.12
2019-04-11T20:33:51.127Z,12.12
2019-04-11T20:35:28.965Z,12.10
2019-04-11T20:37:00.768Z,12.07
2019-04-11T20:38:35.089Z,12.07
2019-04-11T20:40:09.503Z,12.07
2019-04-11T20:41:44.106Z,12.05
2019-04-11T20:43:19.468Z,12.05
2019-04-11T20:44:53.705Z,12.04
2019-04-11T20:46:29.207Z,12.03
2019-04-11T20:48:04.242Z,12.03
2019-04-11T20:49:40.136Z,12.03
2019-04-11T20:51:14.352Z,12.03
2019-04-11T20:52:50.016Z,12.01
2019-04-11T20:54:24.340Z,12.02
2019-04-11T20:55:58.598Z,12.00
2019-04-11T20:57:32.819Z,12.00
2019-04-11T20:59:10.071Z,11.99
2019-04-11T21:00:50.072Z,11.99
2019-04-11T21:02:19.360Z,12.00
2019-04-11T21:03:53.612Z,12.01
2019-04-11T21:05:30.952Z,12.00
2019-04-11T21:07:05.518Z,12.02
2019-04-11T21:08:39.765Z,12.02
2019-04-11T21:10:14.092Z,12.06
2019-04-11T21:11:51.356Z,12.07
2019-04-11T21:13:25.626Z,12.09
2019-04-11T21:14:59.852Z,12.09
2019-04-11T21:16:33.577Z,12.08
2019-04-11T21:18:08.002Z,12.06
2019-04-11T21:19:41.753Z,12.06
2019-04-11T21:21:15.418Z,12.06
2019-04-11T21:22:49.134Z,12.08
2019-04-11T21:24:23.700Z,12.08
2019-04-11T21:25:59.106Z,12.07
2019-04-11T21:27:33.965Z,12.08
2019-04-11T21:29:08.251Z,12.10
2019-04-11T21:30:42.810Z,12.10
2019-04-11T21:32:17.085Z,12.10
2019-04-11T21:33:51.321Z,12.10
2019-04-11T21:35:24.932Z,12.11
2019-04-11T21:37:01.717Z,12.11
2019-04-11T21:38:34.772Z,12.11
2019-04-11T21:40:09.035Z,12.11
2019-04-11T21:41:45.212Z,12.10
2019-04-11T21:43:18.918Z,12.08
2019-04-11T21:44:52.555Z,12.07
2019-04-11T21:46:26.814Z,12.07
2019-04-11T21:48:01.056Z,12.06
2019-04-11T21:49:37.123Z,12.06